Time;durP1;ratioP1;P1;durP2;ratioP2;P2;SDS_P1;SDS_P2;PMS_P1;PMS_P2;Temp;Humidity;BMP_temperature;BMP_pressure;BME280_temperature;BME280_humidity;BME280_pressure;Samples;Min_cycle;Max_cycle;Signal;HPM_P1;HPM_P2
2021/09/24 00:01:55;;;;;;;7.05;1.65;;;;;;;14.72;78.79;100220.41;5056944;28;20120;-78
2021/09/24 00:04:20;;;;;;;9.02;2.33;;;;;;;14.68;75.46;100269.22;5063473;28;20040;-78
2021/09/24 00:06:45;;;;;;;12.52;2.35;;;;;;;14.64;75.31;100230.38;5045903;28;20376;-79
2021/09/24 00:09:12;;;;;;;6.28;1.65;;;;;;;14.61;75.60;100246.38;5050181;28;20045;-79
2021/09/24 00:11:39;;;;;;;9.93;1.73;;;;;;;14.50;75.99;100225.41;5060540;28;20032;-78
2021/09/24 00:14:05;;;;;;;8.77;1.98;;;;;;;14.46;76.14;100229.94;5061138;28;20032;-79
2021/09/24 00:16:31;;;;;;;7.93;1.30;;;;;;;14.44;75.76;100233.56;5028461;28;20068;-78
2021/09/24 00:18:57;;;;;;;6.97;2.25;;;;;;;14.43;76.08;100226.47;5048496;28;20053;-78
2021/09/24 00:21:22;;;;;;;8.93;2.58;;;;;;;14.33;76.57;100225.88;5060931;28;20041;-78
2021/09/24 00:23:48;;;;;;;6.85;1.55;;;;;;;14.29;76.55;100234.81;5058258;28;20037;-77
2021/09/24 00:26:13;;;;;;;5.25;1.40;;;;;;;14.23;76.50;100257.09;5053398;28;20041;-79
2021/09/24 00:28:39;;;;;;;9.07;1.85;;;;;;;14.18;76.79;100260.78;5043289;28;20032;-77
2021/09/24 00:31:04;;;;;;;7.38;1.58;;;;;;;14.19;76.58;100262.50;5052190;28;20036;-77
2021/09/24 00:33:30;;;;;;;6.88;1.92;;;;;;;14.19;76.42;100267.81;5058975;28;20049;-78
2021/09/24 00:35:55;;;;;;;8.38;1.52;;;;;;;14.09;76.94;100263.63;5048531;28;20189;-79
2021/09/24 00:38:22;;;;;;;7.75;1.50;;;;;;;14.03;77.25;100254.06;5059374;28;20017;-78
2021/09/24 00:40:48;;;;;;;10.13;2.08;;;;;;;14.00;77.14;100262.97;5030490;28;20084;-79
2021/09/24 00:43:13;;;;;;;10.85;2.15;;;;;;;13.90;77.70;100272.06;5057407;28;20487;-79
2021/09/24 00:45:38;;;;;;;8.65;2.00;;;;;;;13.93;76.77;100269.31;5056733;28;20037;-78
2021/09/24 00:48:04;;;;;;;9.98;1.80;;;;;;;13.89;76.65;100275.63;5030316;28;20120;-78
2021/09/24 00:50:29;;;;;;;7.72;1.60;;;;;;;13.84;76.44;100282.81;5058973;28;20055;-78
2021/09/24 00:52:55;;;;;;;9.93;1.90;;;;;;;13.87;76.82;100276.56;5055765;28;20124;-78
2021/09/24 00:55:21;;;;;;;10.60;2.05;;;;;;;13.78;76.74;100278.53;5059632;28;20041;-77
2021/09/24 00:57:47;;;;;;;8.05;1.70;;;;;;;13.79;76.17;100287.34;5057784;28;20048;-78
2021/09/24 01:00:13;;;;;;;9.52;1.67;;;;;;;13.84;75.60;100287.25;5035552;28;20037;-78
2021/09/24 01:02:39;;;;;;;9.32;1.80;;;;;;;13.87;75.04;100285.41;5059978;28;20041;-78
2021/09/24 01:05:08;;;;;;;6.30;1.90;;;;;;;14.01;74.07;100295.66;5049711;28;20044;-79
2021/09/24 01:07:35;;;;;;;8.43;1.95;;;;;;;13.99;73.08;100289.50;5042545;28;20105;-78
2021/09/24 01:10:01;;;;;;;9.20;1.67;;;;;;;13.96;73.35;100282.53;5059444;28;20067;-78
2021/09/24 01:12:26;;;;;;;8.63;1.80;;;;;;;13.90;73.72;100290.63;5059331;28;20658;-77
2021/09/24 01:15:00;;;;;;;12.05;2.13;;;;;;;13.87;73.90;100297.78;5057945;28;20040;-77
2021/09/24 01:17:25;;;;;;;9.73;2.25;;;;;;;13.74;74.65;100294.53;5042115;28;20073;-78
2021/09/24 01:19:50;;;;;;;8.73;2.03;;;;;;;13.75;74.31;100310.44;5043036;28;20044;-78
2021/09/24 01:22:17;;;;;;;12.88;2.35;;;;;;;13.69;74.59;100307.91;5049677;28;20048;-79
2021/09/24 01:24:42;;;;;;;11.10;2.03;;;;;;;13.68;74.45;100305.31;5060916;28;20043;-78
2021/09/24 01:27:07;;;;;;;10.93;2.17;;;;;;;13.69;74.21;100307.03;5057439;28;20045;-77
2021/09/24 01:29:33;;;;;;;8.68;1.45;;;;;;;13.69;73.87;100307.03;5057745;28;20404;-78
2021/09/24 01:31:58;;;;;;;12.18;2.90;;;;;;;13.65;74.25;100308.00;5060427;28;20036;-78
2021/09/24 01:34:23;;;;;;;15.13;2.70;;;;;;;13.67;74.01;100315.00;5039725;28;20025;-78
2021/09/24 01:36:49;;;;;;;9.45;2.53;;;;;;;13.66;73.99;100302.66;5038301;28;20057;-79
2021/09/24 01:39:15;;;;;;;14.20;2.35;;;;;;;13.56;74.73;100295.81;5045078;28;20044;-79
2021/09/24 01:41:43;;;;;;;13.77;2.67;;;;;;;13.54;74.72;100298.50;5059694;28;20026;-78
2021/09/24 01:44:08;;;;;;;12.52;2.17;;;;;;;13.49;75.04;100292.47;5054392;28;20045;-78
2021/09/24 01:46:38;;;;;;;9.48;2.00;;;;;;;13.49;75.78;100295.09;5030392;28;20093;-79
2021/09/24 01:49:03;;;;;;;10.95;2.20;;;;;;;13.45;75.82;100293.41;5057649;28;20060;-77
2021/09/24 01:51:29;;;;;;;8.85;2.13;;;;;;;13.45;76.04;100287.25;5057060;28;20032;-78
2021/09/24 01:53:54;;;;;;;9.50;2.20;;;;;;;13.44;76.46;100296.09;5029740;28;20029;-79
2021/09/24 01:56:21;;;;;;;9.00;1.75;;;;;;;13.46;76.18;100300.44;5055894;28;20032;-78
2021/09/24 01:58:47;;;;;;;12.80;2.20;;;;;;;13.45;75.57;100313.75;5055938;28;20034;-78
2021/09/24 02:01:12;;;;;;;12.13;2.30;;;;;;;13.47;75.26;100318.13;5057395;28;20043;-78
2021/09/24 02:03:37;;;;;;;12.25;3.00;;;;;;;13.46;74.21;100332.25;5054472;28;20029;-79
2021/09/24 02:06:03;;;;;;;10.50;2.45;;;;;;;13.48;73.96;100345.50;5057679;28;20043;-78
2021/09/24 02:08:28;;;;;;;12.40;2.50;;;;;;;13.51;73.85;100321.56;5053475;28;20103;-78
2021/09/24 02:10:53;;;;;;;11.48;2.70;;;;;;;13.50;73.82;100331.31;5061422;28;20049;-78
2021/09/24 02:13:19;;;;;;;9.90;2.17;;;;;;;13.50;74.18;100318.03;5060881;28;20052;-77
2021/09/24 02:15:44;;;;;;;11.63;2.75;;;;;;;13.49;74.33;100318.06;5058752;28;20084;-77
2021/09/24 02:18:09;;;;;;;15.05;2.80;;;;;;;13.45;74.71;100330.53;5058348;28;20053;-78
2021/09/24 02:20:35;;;;;;;13.95;2.92;;;;;;;13.53;74.55;100322.41;5038520;28;20451;-78
2021/09/24 02:23:01;;;;;;;9.95;2.33;;;;;;;13.65;74.40;100332.75;5049924;28;20034;-78
2021/09/24 02:25:26;;;;;;;15.02;3.17;;;;;;;13.69;73.98;100331.78;5057626;28;20037;-77
2021/09/24 02:27:51;;;;;;;17.25;3.00;;;;;;;13.73;73.28;100332.59;5057158;28;20048;-78
2021/09/24 02:30:17;;;;;;;14.82;2.92;;;;;;;13.74;72.41;100336.97;5060165;28;20040;-77
2021/09/24 02:32:42;;;;;;;13.50;2.92;;;;;;;13.67;71.94;100348.63;5032237;28;20029;-79
2021/09/24 02:35:08;;;;;;;18.95;3.33;;;;;;;13.64;70.53;100348.69;5027935;28;20041;-78
2021/09/24 02:37:33;;;;;;;15.15;3.08;;;;;;;13.58;70.73;100357.66;5031040;28;20147;-78
2021/09/24 02:39:59;;;;;;;11.50;2.67;;;;;;;13.53;71.27;100349.78;5060153;28;20461;-77
2021/09/24 02:42:24;;;;;;;14.30;3.05;;;;;;;13.48;70.88;100350.81;5056185;28;20057;-78
2021/09/24 02:44:50;;;;;;;18.58;3.40;;;;;;;13.41;71.25;100362.44;5059500;28;20072;-78
2021/09/24 02:47:15;;;;;;;15.65;3.03;;;;;;;13.36;71.63;100368.72;5057575;28;20037;-77
2021/09/24 02:49:42;;;;;;;12.85;2.67;;;;;;;13.33;71.83;100365.22;5058614;28;20093;-77
2021/09/24 02:52:08;;;;;;;18.85;3.08;;;;;;;13.33;72.12;100367.88;5059776;28;20047;-77
2021/09/24 02:54:33;;;;;;;14.60;3.05;;;;;;;13.33;72.22;100367.88;5057484;28;20056;-76
2021/09/24 02:56:59;;;;;;;17.33;3.53;;;;;;;13.36;72.17;100367.81;5059312;28;20052;-78
2021/09/24 02:59:24;;;;;;;13.80;3.38;;;;;;;13.43;72.28;100372.09;5056674;28;20340;-78
2021/09/24 03:01:49;;;;;;;16.58;3.40;;;;;;;13.35;72.93;100381.97;5059692;28;20029;-76
2021/09/24 03:04:15;;;;;;;18.63;2.67;;;;;;;13.31;73.30;100372.38;5056370;28;20033;-78
2021/09/24 03:06:40;;;;;;;16.17;2.67;;;;;;;13.28;73.21;100381.25;5059799;28;20041;-78
2021/09/24 03:09:07;;;;;;;13.70;2.90;;;;;;;13.27;73.73;100379.47;5057520;28;20036;-78
2021/09/24 03:11:32;;;;;;;14.13;3.20;;;;;;;13.14;74.51;100389.41;5063326;28;20037;-78
2021/09/24 03:13:58;;;;;;;14.18;3.38;;;;;;;13.06;75.24;100390.47;5060336;28;20021;-78
2021/09/24 03:16:23;;;;;;;14.75;2.97;;;;;;;12.99;76.42;100404.72;5028947;28;20036;-79
2021/09/24 03:18:48;;;;;;;12.00;2.60;;;;;;;12.93;76.60;100395.09;5061572;28;20041;-78
2021/09/24 03:21:14;;;;;;;13.77;3.03;;;;;;;12.87;77.03;100405.81;5060363;28;20057;-78
2021/09/24 03:23:39;;;;;;;19.00;3.63;;;;;;;12.88;76.25;100399.63;5043823;28;20091;-78
2021/09/24 03:26:04;;;;;;;12.90;3.15;;;;;;;12.91;76.00;100396.91;5061566;28;20033;-78
2021/09/24 03:28:30;;;;;;;15.02;3.67;;;;;;;12.92;75.42;100398.69;5063264;28;20045;-77
2021/09/24 03:30:56;;;;;;;14.25;3.03;;;;;;;12.89;75.24;100391.66;5046593;28;20043;-78
2021/09/24 03:33:21;;;;;;;13.35;3.33;;;;;;;12.88;75.26;100394.31;5058247;28;20041;-79
2021/09/24 03:35:47;;;;;;;13.10;2.97;;;;;;;12.83;75.91;100398.81;5060450;28;20033;-78
2021/09/24 03:38:12;;;;;;;14.48;3.30;;;;;;;12.78;75.87;100390.06;5056133;28;20451;-78
2021/09/24 03:40:38;;;;;;;13.98;3.65;;;;;;;12.65;76.82;100405.31;5045967;28;20037;-78
2021/09/24 03:43:03;;;;;;;14.15;3.15;;;;;;;12.59;77.39;100400.97;5058414;28;20065;-78
2021/09/24 03:45:29;;;;;;;16.77;3.63;;;;;;;12.57;77.42;100396.63;5055484;28;20503;-76
2021/09/24 03:47:54;;;;;;;13.88;3.45;;;;;;;12.50;77.90;100411.75;5058911;28;20056;-78
2021/09/24 03:50:20;;;;;;;14.90;3.10;;;;;;;12.43;78.38;100402.13;5058806;28;20039;-79
2021/09/24 03:52:45;;;;;;;19.85;3.80;;;;;;;12.49;78.50;100416.13;5062066;28;20344;-77
2021/09/24 03:55:11;;;;;;;20.27;3.38;;;;;;;12.46;78.44;100420.63;5051430;28;20051;-77
2021/09/24 03:57:36;;;;;;;15.63;3.47;;;;;;;12.44;78.65;100422.41;5051538;28;20043;-78
2021/09/24 04:00:03;;;;;;;15.52;2.75;;;;;;;12.39;78.63;100419.84;5060221;28;20029;-77
2021/09/24 04:02:37;;;;;;;14.13;3.30;;;;;;;12.35;78.61;100423.44;5053626;28;20041;-78
2021/09/24 04:05:03;;;;;;;18.17;3.72;;;;;;;12.33;78.61;100425.22;5058044;28;20079;-77
2021/09/24 04:07:28;;;;;;;15.10;3.08;;;;;;;12.27;79.07;100428.84;5056245;28;20033;-79
2021/09/24 04:09:53;;;;;;;14.65;3.55;;;;;;;12.32;78.77;100431.41;5060324;28;20079;-77
2021/09/24 04:12:19;;;;;;;14.73;3.55;;;;;;;12.32;78.80;100433.19;5052955;28;20041;-77
2021/09/24 04:14:44;;;;;;;17.50;3.38;;;;;;;12.25;79.05;100438.56;5059566;28;20033;-77
2021/09/24 04:17:09;;;;;;;17.23;3.35;;;;;;;12.26;79.11;100437.69;5057263;28;20045;-78
2021/09/24 04:19:35;;;;;;;15.30;3.60;;;;;;;12.21;79.57;100439.53;5046428;28;20041;-77
2021/09/24 04:22:00;;;;;;;14.27;3.15;;;;;;;12.17;79.07;100440.44;5061312;28;20048;-77
2021/09/24 04:24:26;;;;;;;15.82;3.88;;;;;;;12.24;78.98;100430.66;5059670;28;20037;-76
2021/09/24 04:26:51;;;;;;;19.33;3.55;;;;;;;12.24;79.24;100435.94;5057685;28;20088;-77
2021/09/24 04:29:16;;;;;;;15.20;2.90;;;;;;;12.16;79.08;100432.53;5057966;28;20021;-77
2021/09/24 04:31:42;;;;;;;15.20;3.53;;;;;;;12.12;79.45;100442.28;5046021;28;20052;-77
2021/09/24 04:34:09;;;;;;;17.35;3.97;;;;;;;12.14;78.88;100445.78;5057017;28;20066;-78
2021/09/24 04:36:34;;;;;;;15.23;3.40;;;;;;;12.11;79.07;100456.41;5054445;28;20025;-77
2021/09/24 04:39:02;;;;;;;21.42;3.42;;;;;;;12.09;79.46;100447.63;5051442;28;20055;-77
2021/09/24 04:41:27;;;;;;;11.77;2.75;;;;;;;12.08;79.02;100445.88;5033024;28;20029;-78
2021/09/24 04:43:53;;;;;;;15.35;3.42;;;;;;;12.05;78.79;100448.53;5056311;28;20079;-76
2021/09/24 04:46:18;;;;;;;22.58;4.32;;;;;;;12.06;78.96;100453.81;5049710;28;20030;-77
2021/09/24 04:48:44;;;;;;;12.05;3.45;;;;;;;12.04;79.16;100452.97;5056212;28;20037;-77
2021/09/24 04:51:09;;;;;;;12.43;3.83;;;;;;;12.01;79.09;100460.06;5031783;28;20555;-77
2021/09/24 04:53:34;;;;;;;19.23;3.83;;;;;;;12.02;78.92;100462.69;5056232;28;20041;-77
2021/09/24 04:56:00;;;;;;;15.32;3.80;;;;;;;12.02;78.54;100467.09;5055430;28;20037;-77
2021/09/24 04:58:25;;;;;;;25.70;4.45;;;;;;;12.05;78.85;100464.41;5056203;28;20037;-77
2021/09/24 05:00:51;;;;;;;19.88;4.07;;;;;;;12.04;78.80;100473.25;5058976;28;20039;-76
2021/09/24 05:03:16;;;;;;;18.45;3.90;;;;;;;12.04;78.74;100476.78;5041234;28;20030;-77
2021/09/24 05:05:41;;;;;;;18.52;3.90;;;;;;;12.03;78.75;100471.50;5042196;28;20031;-78
2021/09/24 05:08:07;;;;;;;18.67;4.13;;;;;;;12.04;78.48;100466.19;5057131;28;20476;-76
2021/09/24 05:10:32;;;;;;;18.58;4.60;;;;;;;12.06;78.83;100460.88;5057553;28;20038;-78
2021/09/24 05:12:57;;;;;;;26.58;3.80;;;;;;;12.07;78.71;100466.13;5056381;28;20059;-78
2021/09/24 05:15:23;;;;;;;17.13;3.83;;;;;;;12.06;79.11;100474.13;5052744;28;20033;-77
2021/09/24 05:17:48;;;;;;;19.38;3.20;;;;;;;12.09;78.81;100467.91;5033240;28;20103;-76
2021/09/24 05:20:13;;;;;;;17.48;3.45;;;;;;;12.09;79.06;100458.19;5051802;28;20503;-77
2021/09/24 05:22:40;;;;;;;20.40;4.07;;;;;;;12.07;79.20;100465.28;5053220;28;20041;-76
2021/09/24 05:25:05;;;;;;;16.70;3.50;;;;;;;12.07;79.18;100470.56;5053109;28;20052;-78
2021/09/24 05:27:31;;;;;;;20.55;3.75;;;;;;;12.05;79.25;100477.63;5055816;28;20041;-78
2021/09/24 05:29:56;;;;;;;18.77;3.85;;;;;;;12.05;79.75;100467.97;5056302;28;20040;-77
2021/09/24 05:32:21;;;;;;;23.77;4.25;;;;;;;12.10;78.91;100475.81;5055658;28;20048;-78
2021/09/24 05:34:47;;;;;;;15.07;3.45;;;;;;;12.17;78.65;100477.47;5056828;28;20044;-76
2021/09/24 05:37:12;;;;;;;20.20;4.80;;;;;;;12.16;78.69;100481.03;5055407;28;20052;-78
2021/09/24 05:39:37;;;;;;;16.73;3.33;;;;;;;12.17;79.03;100484.56;5058477;28;20064;-78
2021/09/24 05:42:03;;;;;;;15.48;3.20;;;;;;;12.17;78.95;100484.56;5054607;28;20048;-78
2021/09/24 05:44:29;;;;;;;16.27;3.70;;;;;;;12.23;78.88;100487.97;5057727;28;20044;-78
2021/09/24 05:46:54;;;;;;;22.38;4.47;;;;;;;12.23;78.97;100487.97;5055619;28;20025;-78
2021/09/24 05:49:19;;;;;;;20.25;4.25;;;;;;;12.27;78.61;100492.34;5057124;28;20029;-76
2021/09/24 05:51:45;;;;;;;24.98;4.05;;;;;;;12.32;78.64;100486.13;5056482;28;20040;-77
2021/09/24 05:54:11;;;;;;;13.57;2.95;;;;;;;12.35;78.76;100484.28;5055702;28;20066;-78
2021/09/24 05:56:36;;;;;;;16.98;4.05;;;;;;;12.41;78.41;100481.56;5056686;28;20033;-77
2021/09/24 05:59:02;;;;;;;19.75;3.72;;;;;;;12.44;77.83;100493.88;5055005;28;20120;-77
2021/09/24 06:01:27;;;;;;;22.63;4.88;;;;;;;12.48;77.96;100488.50;5057703;28;20032;-77
2021/09/24 06:03:54;;;;;;;19.77;4.55;;;;;;;12.60;77.51;100489.22;5054175;28;20033;-78
2021/09/24 06:06:20;;;;;;;23.25;3.88;;;;;;;12.69;76.88;100497.03;5040221;28;20043;-77
2021/09/24 06:08:49;;;;;;;19.00;3.97;;;;;;;12.72;76.94;100497.84;5024938;28;20038;-78
2021/09/24 06:11:18;;;;;;;21.48;3.58;;;;;;;12.82;76.85;100500.38;5025226;28;20041;-78
2021/09/24 06:13:43;;;;;;;17.05;4.10;;;;;;;12.84;76.56;100507.41;5050594;28;20042;-77
2021/09/24 06:16:09;;;;;;;21.17;4.28;;;;;;;12.91;76.09;100503.72;5050248;28;20063;-78
2021/09/24 06:18:34;;;;;;;18.15;3.47;;;;;;;12.96;76.25;100502.78;5058703;28;20412;-78
2021/09/24 06:21:02;;;;;;;18.00;3.40;;;;;;;12.99;75.93;100503.59;5056657;28;20364;-77
2021/09/24 06:23:27;;;;;;;22.50;4.30;;;;;;;13.05;75.81;100510.59;5055505;28;20120;-78
2021/09/24 06:25:52;;;;;;;21.58;4.50;;;;;;;13.06;75.84;100515.84;5061211;28;20038;-78
2021/09/24 06:28:18;;;;;;;21.50;4.82;;;;;;;13.09;75.70;100533.47;5053608;28;20064;-77
2021/09/24 06:30:43;;;;;;;25.08;4.28;;;;;;;13.19;75.59;100508.59;5059063;28;20125;-77
2021/09/24 06:33:09;;;;;;;19.25;4.18;;;;;;;13.26;75.60;100509.38;5061510;28;20033;-77
2021/09/24 06:35:34;;;;;;;16.58;4.07;;;;;;;13.32;75.75;100519.88;5061576;28;20062;-77
2021/09/24 06:37:59;;;;;;;15.90;3.85;;;;;;;13.39;75.66;100505.63;5061712;28;20044;-78
2021/09/24 06:40:25;;;;;;;20.90;5.38;;;;;;;13.42;75.83;100510.88;5058270;28;20047;-77
2021/09/24 06:42:51;;;;;;;21.73;4.15;;;;;;;13.49;75.24;100504.56;5031215;28;20064;-76
2021/09/24 06:45:16;;;;;;;24.77;4.25;;;;;;;13.52;75.66;100511.59;5062774;28;20045;-77
2021/09/24 06:47:43;;;;;;;16.55;3.55;;;;;;;13.55;75.91;100507.09;5060140;28;20044;-78
2021/09/24 06:50:09;;;;;;;19.02;3.63;;;;;;;13.56;75.61;100507.94;5055846;28;20036;-77
2021/09/24 06:52:35;;;;;;;25.50;4.93;;;;;;;13.67;75.27;100511.25;5059648;28;20068;-77
2021/09/24 06:55:00;;;;;;;17.80;4.07;;;;;;;13.71;74.24;100525.34;5058171;28;20041;-77
2021/09/24 06:57:26;;;;;;;19.58;4.15;;;;;;;13.79;74.16;100516.34;5050192;28;20045;-78
2021/09/24 06:59:52;;;;;;;18.05;3.20;;;;;;;13.87;74.30;100512.66;5056430;28;20045;-78
2021/09/24 07:02:17;;;;;;;12.88;3.55;;;;;;;13.94;73.71;100520.47;5058162;28;20119;-78
2021/09/24 07:04:42;;;;;;;18.17;4.55;;;;;;;14.00;73.19;100524.78;5057727;28;20045;-77
2021/09/24 07:07:09;;;;;;;15.77;3.38;;;;;;;14.09;73.42;100523.72;5056348;28;20098;-78
2021/09/24 07:09:39;;;;;;;16.48;3.65;;;;;;;14.17;73.08;100535.03;5043483;28;20033;-78
2021/09/24 07:12:06;;;;;;;16.02;3.33;;;;;;;14.19;71.91;100551.81;5047978;28;20116;-78
2021/09/24 07:14:31;;;;;;;16.00;3.58;;;;;;;14.23;72.17;100529.63;5011670;28;20037;-77
2021/09/24 07:16:58;;;;;;;18.65;3.65;;;;;;;14.38;72.15;100521.34;5045575;28;20037;-77
2021/09/24 07:19:23;;;;;;;15.15;3.13;;;;;;;14.44;71.72;100522.97;5049640;28;20407;-77
2021/09/24 07:21:49;;;;;;;15.85;3.17;;;;;;;14.54;71.10;100521.00;5052165;28;20048;-77
2021/09/24 07:24:16;;;;;;;15.88;3.53;;;;;;;14.58;70.51;100528.88;5045415;28;20041;-78
2021/09/24 07:26:42;;;;;;;20.77;3.42;;;;;;;14.57;69.89;100535.09;5025302;28;20033;-78
2021/09/24 07:29:07;;;;;;;15.48;3.55;;;;;;;14.59;70.15;100535.03;5048999;28;20113;-77
2021/09/24 07:31:32;;;;;;;21.10;4.88;;;;;;;14.63;70.04;100542.03;5047560;28;20044;-78
2021/09/24 07:33:58;;;;;;;14.10;3.55;;;;;;;14.77;69.51;100547.03;5044833;28;20147;-78
2021/09/24 07:36:23;;;;;;;16.05;4.13;;;;;;;14.78;68.90;100535.53;5046392;28;20047;-77
2021/09/24 07:38:49;;;;;;;21.15;3.70;;;;;;;14.90;68.75;100538.72;5046103;28;20479;-78
2021/09/24 07:41:16;;;;;;;16.10;4.07;;;;;;;14.97;68.57;100533.28;5049154;28;20048;-78
2021/09/24 07:43:43;;;;;;;14.73;3.30;;;;;;;15.17;67.78;100544.31;5046842;28;20395;-77
2021/09/24 07:46:08;;;;;;;15.07;3.78;;;;;;;15.33;67.06;100545.66;5046531;28;20112;-78
2021/09/24 07:48:34;;;;;;;20.50;3.72;;;;;;;15.34;67.30;100541.22;5045463;28;20514;-78
2021/09/24 07:51:01;;;;;;;17.35;3.40;;;;;;;15.38;66.76;100537.56;5048824;28;20124;-77
2021/09/24 07:53:27;;;;;;;16.58;3.22;;;;;;;15.47;66.94;100536.47;5044394;28;20060;-78
2021/09/24 07:55:52;;;;;;;16.30;3.45;;;;;;;15.45;65.08;100547.13;5047313;28;20036;-78
2021/09/24 07:58:18;;;;;;;14.82;3.78;;;;;;;15.43;64.71;100545.41;5043579;28;20052;-78
2021/09/24 08:00:43;;;;;;;14.93;3.42;;;;;;;15.37;66.00;100537.59;5047198;28;20122;-78
2021/09/24 08:03:08;;;;;;;15.18;3.83;;;;;;;15.41;65.74;100568.53;5042600;28;20426;-78
2021/09/24 08:05:34;;;;;;;19.00;3.63;;;;;;;15.51;65.87;100570.91;5046014;28;20067;-77
2021/09/24 08:07:59;;;;;;;17.30;3.88;;;;;;;15.48;64.73;100581.66;5044408;28;20060;-78
2021/09/24 08:10:25;;;;;;;15.65;3.50;;;;;;;15.55;64.24;100571.69;5045001;28;20036;-78
2021/09/24 08:12:51;;;;;;;16.65;3.50;;;;;;;15.74;64.33;100565.00;5010528;28;20471;-78
2021/09/24 08:15:17;;;;;;;18.45;3.75;;;;;;;15.59;64.07;100565.41;5045223;28;20033;-78
2021/09/24 08:17:43;;;;;;;14.23;3.40;;;;;;;15.54;65.09;100562.00;5045684;28;20113;-78
2021/09/24 08:20:09;;;;;;;19.67;4.13;;;;;;;15.63;63.86;100550.22;5044013;28;20499;-78
2021/09/24 08:22:38;;;;;;;18.42;4.15;;;;;;;15.77;63.69;100570.28;5045100;28;20491;-78
2021/09/24 08:25:16;;;;;;;16.92;4.07;;;;;;;15.81;61.08;100581.69;5044320;28;20083;-78
2021/09/24 08:27:42;;;;;;;15.77;2.95;;;;;;;15.78;61.77;100579.97;5047699;28;20043;-78
2021/09/24 08:30:14;;;;;;;19.13;2.85;;;;;;;15.92;61.06;100560.09;5045013;28;20040;-78
2021/09/24 08:32:39;;;;;;;16.65;3.38;;;;;;;15.86;60.92;100561.16;5045103;28;20280;-78
2021/09/24 08:35:09;;;;;;;17.70;3.17;;;;;;;15.96;62.44;100557.31;5044571;28;20037;-77
2021/09/24 08:37:36;;;;;;;13.98;2.85;;;;;;;16.14;60.77;100563.91;5043073;28;20116;-77
2021/09/24 08:40:03;;;;;;;16.27;3.67;;;;;;;16.16;59.94;100570.06;5042029;28;20056;-78
2021/09/24 08:42:28;;;;;;;11.68;2.88;;;;;;;16.00;60.24;100548.31;5045977;28;20041;-78
2021/09/24 08:44:54;;;;;;;13.85;2.92;;;;;;;15.96;60.50;100556.47;5045277;28;20167;-78
2021/09/24 08:47:19;;;;;;;16.35;3.70;;;;;;;16.06;60.55;100544.63;5044674;28;20111;-78
2021/09/24 08:49:46;;;;;;;16.42;3.85;;;;;;;16.15;61.09;100555.00;5045463;28;20032;-77
2021/09/24 08:52:12;;;;;;;17.08;3.40;;;;;;;16.22;60.03;100569.03;5043140;28;20076;-78
2021/09/24 08:54:37;;;;;;;18.27;3.17;;;;;;;16.14;59.75;100576.38;5045199;28;20147;-78
2021/09/24 08:57:03;;;;;;;15.35;3.40;;;;;;;16.32;60.34;100542.97;5045619;28;20459;-78
2021/09/24 08:59:29;;;;;;;11.95;2.72;;;;;;;16.31;59.71;100550.09;5033399;28;20038;-79
2021/09/24 09:02:03;;;;;;;15.90;2.97;;;;;;;16.39;59.12;100556.06;5040343;28;20029;-78
2021/09/24 09:04:58;;;;;;;11.15;2.88;;;;;;;16.54;59.33;100552.09;5045285;28;20039;-78
2021/09/24 09:07:23;;;;;;;12.32;2.72;;;;;;;16.79;58.71;100540.69;5036115;28;20557;-78
2021/09/24 09:09:51;;;;;;;14.85;3.28;;;;;;;16.91;56.63;100580.28;5048085;28;20041;-78
2021/09/24 09:12:25;;;;;;;16.83;3.13;;;;;;;16.98;57.38;100539.19;5020982;28;20037;-78
2021/09/24 09:15:05;;;;;;;12.68;2.60;;;;;;;16.90;57.35;100541.25;5030929;28;20044;-78
2021/09/24 09:17:50;;;;;;;13.25;2.40;;;;;;;16.75;58.38;100560.34;5044758;28;20041;-78
2021/09/24 09:20:23;;;;;;;9.23;2.45;;;;;;;16.93;57.94;100546.47;5039895;28;20092;-77
2021/09/24 09:23:06;;;;;;;13.05;2.70;;;;;;;17.03;56.69;100545.25;5045328;28;20033;-78
2021/09/24 09:25:35;;;;;;;15.57;2.78;;;;;;;17.28;57.04;100544.44;5036995;28;20032;-78
2021/09/24 09:28:04;;;;;;;9.25;2.83;;;;;;;17.42;55.75;100546.63;5043269;28;20065;-79
2021/09/24 09:30:31;;;;;;;13.25;2.60;;;;;;;17.36;55.37;100585.06;5045988;28;20045;-78
2021/09/24 09:33:04;;;;;;;10.27;2.55;;;;;;;17.24;56.18;100550.81;5033363;28;20048;-79
2021/09/24 09:35:34;;;;;;;9.35;2.13;;;;;;;17.00;55.97;100558.69;5040473;28;20111;-78
2021/09/24 09:38:00;;;;;;;11.60;2.00;;;;;;;16.89;57.23;100557.28;5044443;28;20106;-78
2021/09/24 09:40:27;;;;;;;8.52;2.10;;;;;;;16.81;58.27;100570.84;5036439;28;21231;-79
2021/09/24 09:42:55;;;;;;;9.55;2.72;;;;;;;16.97;58.28;100563.22;5039868;28;20036;-78
2021/09/24 09:45:21;;;;;;;9.55;2.42;;;;;;;17.13;57.69;100571.59;5021430;28;20104;-78
2021/09/24 09:47:49;;;;;;;5.43;1.77;;;;;;;17.09;58.63;100568.16;5040787;28;20064;-79
2021/09/24 09:50:17;;;;;;;9.82;1.80;;;;;;;17.02;58.66;100567.47;5041660;28;20434;-78
2021/09/24 09:53:07;;;;;;;8.95;2.15;;;;;;;17.24;58.44;100572.13;5043071;28;20506;-79
2021/09/24 09:55:36;;;;;;;6.00;1.48;;;;;;;17.26;58.38;100583.59;5042396;28;20056;-78
2021/09/24 09:58:06;;;;;;;10.40;2.10;;;;;;;17.24;59.01;100582.81;5026787;28;20043;-78
2021/09/24 10:00:34;;;;;;;7.75;1.88;;;;;;;17.22;58.60;100587.31;5036506;28;20081;-79
2021/09/24 10:03:09;;;;;;;5.43;1.80;;;;;;;17.11;59.25;100576.09;5030223;28;20087;-79
2021/09/24 10:05:43;;;;;;;8.27;1.92;;;;;;;17.04;59.78;100578.97;5034287;28;20052;-78
2021/09/24 10:08:26;;;;;;;7.47;1.63;;;;;;;16.90;59.20;100591.88;5015013;28;20059;-78
2021/09/24 10:10:54;;;;;;;4.95;1.25;;;;;;;16.81;59.74;100610.81;5008294;28;20038;-78
2021/09/24 10:13:19;;;;;;;8.23;1.73;;;;;;;16.77;59.96;100578.06;5036050;28;20128;-78
2021/09/24 10:15:45;;;;;;;6.43;1.55;;;;;;;16.86;60.03;100574.22;5043987;28;20049;-78
2021/09/24 10:18:11;;;;;;;11.38;2.65;;;;;;;17.02;59.68;100578.16;5039296;28;20030;-78
2021/09/24 10:20:37;;;;;;;8.40;1.65;;;;;;;17.03;60.40;100579.91;5034136;28;20097;-78
2021/09/24 10:23:02;;;;;;;5.78;1.70;;;;;;;17.15;60.58;100577.75;5037378;28;20043;-77
2021/09/24 10:25:28;;;;;;;7.80;1.60;;;;;;;17.20;59.73;100587.34;5028819;28;20033;-78
2021/09/24 10:27:55;;;;;;;8.40;2.25;;;;;;;17.19;59.86;100590.09;5026397;28;20033;-77
2021/09/24 10:30:25;;;;;;;6.95;1.50;;;;;;;17.21;59.73;100588.22;5041307;28;20030;-77
2021/09/24 10:33:00;;;;;;;7.00;1.65;;;;;;;17.28;59.49;100584.44;5043205;28;20694;-78
2021/09/24 10:35:48;;;;;;;4.70;1.25;;;;;;;17.37;59.08;100578.81;5018857;28;20044;-78
2021/09/24 10:38:15;;;;;;;4.80;1.33;;;;;;;17.56;58.71;100575.53;5039462;28;20044;-78
2021/09/24 10:40:55;;;;;;;7.15;1.77;;;;;;;17.66;58.57;100560.94;5045493;28;20047;-78
2021/09/24 10:43:20;;;;;;;4.38;1.55;;;;;;;17.77;58.68;100565.91;5039681;28;20041;-78
2021/09/24 10:45:46;;;;;;;5.10;1.65;;;;;;;17.88;58.24;100563.75;5016549;28;20407;-80
2021/09/24 10:48:25;;;;;;;6.57;1.48;;;;;;;17.83;57.74;100558.56;5046306;28;20145;-80
2021/09/24 10:50:56;;;;;;;9.02;1.45;;;;;;;17.83;57.00;100558.56;5038840;28;20075;-80
2021/09/24 10:53:29;;;;;;;4.60;0.93;;;;;;;17.92;57.31;100558.25;5042216;28;20032;-79
2021/09/24 10:55:54;;;;;;;5.60;1.00;;;;;;;17.97;57.38;100550.03;5024960;28;20037;-78
2021/09/24 10:58:22;;;;;;;5.13;0.93;;;;;;;17.85;56.59;100553.16;5051036;28;20044;-80
2021/09/24 11:00:50;;;;;;;3.83;0.88;;;;;;;17.98;56.78;100548.25;5044633;28;20041;-80
2021/09/24 11:03:19;;;;;;;3.53;0.80;;;;;;;18.15;56.67;100546.69;5048969;28;20036;-81
2021/09/24 11:06:02;;;;;;;2.25;0.70;;;;;;;18.11;56.30;100550.41;5044249;28;20052;-80
2021/09/24 11:08:34;;;;;;;2.75;0.65;;;;;;;18.30;56.25;100545.25;5045117;28;20100;-81
2021/09/24 11:11:09;;;;;;;3.88;0.70;;;;;;;18.31;56.71;100541.66;5044671;28;20041;-81
2021/09/24 11:13:47;;;;;;;5.18;1.13;;;;;;;18.51;55.99;100542.69;5040311;28;20030;-80
2021/09/24 11:16:18;;;;;;;4.68;1.10;;;;;;;18.65;55.51;100540.34;5039950;28;20414;-81
2021/09/24 11:18:55;;;;;;;2.92;0.70;;;;;;;18.81;55.29;100541.53;5036425;28;20056;-80